sensor_id;sensor_type;location;lat;lon;timestamp;temperature;humidity
27258;DHT22;62045;49.986;8.672;2022-08-01T00:03:23;27.60;41.80
27258;DHT22;62045;49.986;8.672;2022-08-01T00:08:24;27.60;41.80
27258;DHT22;62045;49.986;8.672;2022-08-01T00:13:25;27.60;41.90
27258;DHT22;62045;49.986;8.672;2022-08-01T00:18:27;27.60;41.90
27258;DHT22;62045;49.986;8.672;2022-08-01T00:23:28;27.50;41.80
27258;DHT22;62045;49.986;8.672;2022-08-01T00:28:29;27.50;41.90
27258;DHT22;62045;49.986;8.672;2022-08-01T00:33:31;27.50;41.90
27258;DHT22;62045;49.986;8.672;2022-08-01T00:38:32;27.50;41.90
27258;DHT22;62045;49.986;8.672;2022-08-01T00:43:33;27.50;42.00
27258;DHT22;62045;49.986;8.672;2022-08-01T00:48:35;27.50;41.90
27258;DHT22;62045;49.986;8.672;2022-08-01T00:53:36;27.50;41.90
27258;DHT22;62045;49.986;8.672;2022-08-01T00:58:37;27.50;41.90
27258;DHT22;62045;49.986;8.672;2022-08-01T01:03:40;27.60;42.00
27258;DHT22;62045;49.986;8.672;2022-08-01T01:08:44;27.60;41.90
27258;DHT22;62045;49.986;8.672;2022-08-01T01:13:49;27.60;42.00
27258;DHT22;62045;49.986;8.672;2022-08-01T01:18:55;27.60;41.90
27258;DHT22;62045;49.986;8.672;2022-08-01T01:24:07;27.60;41.90
27258;DHT22;62045;49.986;8.672;2022-08-01T01:29:16;27.70;41.90
27258;DHT22;62045;49.986;8.672;2022-08-01T01:34:20;27.60;41.90
27258;DHT22;62045;49.986;8.672;2022-08-01T01:39:24;27.70;41.90
27258;DHT22;62045;49.986;8.672;2022-08-01T01:44:28;27.70;41.90
27258;DHT22;62045;49.986;8.672;2022-08-01T01:49:30;27.70;41.90
27258;DHT22;62045;49.986;8.672;2022-08-01T01:54:35;27.60;41.80
27258;DHT22;62045;49.986;8.672;2022-08-01T01:59:38;27.60;41.80
27258;DHT22;62045;49.986;8.672;2022-08-01T02:04:42;27.60;41.80
27258;DHT22;62045;49.986;8.672;2022-08-01T02:09:45;27.60;41.80
27258;DHT22;62045;49.986;8.672;2022-08-01T02:14:48;27.50;41.80
27258;DHT22;62045;49.986;8.672;2022-08-01T02:19:50;27.50;41.70
27258;DHT22;62045;49.986;8.672;2022-08-01T02:24:56;27.50;41.80
27258;DHT22;62045;49.986;8.672;2022-08-01T02:30:03;27.50;41.80
27258;DHT22;62045;49.986;8.672;2022-08-01T02:35:07;27.50;41.80
27258;DHT22;62045;49.986;8.672;2022-08-01T02:40:10;27.50;41.90
27258;DHT22;62045;49.986;8.672;2022-08-01T02:45:15;27.40;41.90
27258;DHT22;62045;49.986;8.672;2022-08-01T02:50:18;27.40;41.90
27258;DHT22;62045;49.986;8.672;2022-08-01T02:55:20;27.40;42.00
27258;DHT22;62045;49.986;8.672;2022-08-01T03:00:23;27.40;42.00
27258;DHT22;62045;49.986;8.672;2022-08-01T03:05:25;27.40;42.10
27258;DHT22;62045;49.986;8.672;2022-08-01T03:10:27;27.40;42.10
27258;DHT22;62045;49.986;8.672;2022-08-01T03:15:31;27.40;42.10
27258;DHT22;62045;49.986;8.672;2022-08-01T03:20:33;27.40;42.00
27258;DHT22;62045;49.986;8.672;2022-08-01T03:25:36;27.40;42.00
27258;DHT22;62045;49.986;8.672;2022-08-01T03:30:40;27.40;42.00
27258;DHT22;62045;49.986;8.672;2022-08-01T03:35:48;27.40;42.00
27258;DHT22;62045;49.986;8.672;2022-08-01T03:40:53;27.40;42.00
27258;DHT22;62045;49.986;8.672;2022-08-01T03:46:01;27.40;41.90
27258;DHT22;62045;49.986;8.672;2022-08-01T03:51:04;27.40;42.00
27258;DHT22;62045;49.986;8.672;2022-08-01T03:56:07;27.40;41.90
27258;DHT22;62045;49.986;8.672;2022-08-01T04:01:10;27.40;41.90
27258;DHT22;62045;49.986;8.672;2022-08-01T04:06:12;27.40;41.90
27258;DHT22;62045;49.986;8.672;2022-08-01T04:11:12;27.40;41.90
27258;DHT22;62045;49.986;8.672;2022-08-01T04:16:15;27.40;41.90
27258;DHT22;62045;49.986;8.672;2022-08-01T04:21:18;27.40;41.90
27258;DHT22;62045;49.986;8.672;2022-08-01T04:26:22;27.40;42.00
27258;DHT22;62045;49.986;8.672;2022-08-01T04:31:25;27.40;42.00
27258;DHT22;62045;49.986;8.672;2022-08-01T04:36:28;27.40;42.10
27258;DHT22;62045;49.986;8.672;2022-08-01T04:41:30;27.30;42.00
27258;DHT22;62045;49.986;8.672;2022-08-01T04:46:34;27.30;42.10
27258;DHT22;62045;49.986;8.672;2022-08-01T04:51:35;27.30;42.10
27258;DHT22;62045;49.986;8.672;2022-08-01T04:56:36;27.30;42.10
27258;DHT22;62045;49.986;8.672;2022-08-01T05:01:38;27.20;42.10
27258;DHT22;62045;49.986;8.672;2022-08-01T05:06:39;27.20;42.20
27258;DHT22;62045;49.986;8.672;2022-08-01T05:11:40;27.20;42.20
27258;DHT22;62045;49.986;8.672;2022-08-01T05:16:42;27.20;42.20
27258;DHT22;62045;49.986;8.672;2022-08-01T05:21:43;27.20;42.20
27258;DHT22;62045;49.986;8.672;2022-08-01T05:26:43;27.20;42.20
27258;DHT22;62045;49.986;8.672;2022-08-01T05:31:46;27.10;42.20
27258;DHT22;62045;49.986;8.672;2022-08-01T05:36:47;27.10;42.20
27258;DHT22;62045;49.986;8.672;2022-08-01T05:41:47;27.20;42.20
27258;DHT22;62045;49.986;8.672;2022-08-01T05:46:50;27.20;42.20
27258;DHT22;62045;49.986;8.672;2022-08-01T05:51:50;27.20;42.20
27258;DHT22;62045;49.986;8.672;2022-08-01T05:56:51;27.20;42.10
27258;DHT22;62045;49.986;8.672;2022-08-01T06:01:54;27.20;42.10
27258;DHT22;62045;49.986;8.672;2022-08-01T06:06:54;27.20;42.10
27258;DHT22;62045;49.986;8.672;2022-08-01T06:11:55;27.20;42.10
27258;DHT22;62045;49.986;8.672;2022-08-01T06:16:58;27.20;42.10
27258;DHT22;62045;49.986;8.672;2022-08-01T06:21:58;27.20;42.10
27258;DHT22;62045;49.986;8.672;2022-08-01T06:26:59;27.20;42.10
27258;DHT22;62045;49.986;8.672;2022-08-01T06:32:02;27.20;42.70
27258;DHT22;62045;49.986;8.672;2022-08-01T06:37:03;27.20;42.10
27258;DHT22;62045;49.986;8.672;2022-08-01T06:42:03;27.20;42.10
27258;DHT22;62045;49.986;8.672;2022-08-01T06:47:06;27.20;42.10
27258;DHT22;62045;49.986;8.672;2022-08-01T06:52:07;27.20;42.10
27258;DHT22;62045;49.986;8.672;2022-08-01T06:57:07;27.20;42.20
27258;DHT22;62045;49.986;8.672;2022-08-01T07:02:10;27.10;42.20
27258;DHT22;62045;49.986;8.672;2022-08-01T07:07:10;27.10;42.20
27258;DHT22;62045;49.986;8.672;2022-08-01T07:12:13;27.20;42.30
27258;DHT22;62045;49.986;8.672;2022-08-01T07:17:15;27.10;42.40
27258;DHT22;62045;49.986;8.672;2022-08-01T07:22:16;27.10;42.60
27258;DHT22;62045;49.986;8.672;2022-08-01T07:27:17;27.10;42.90
27258;DHT22;62045;49.986;8.672;2022-08-01T07:32:19;27.10;44.00
27258;DHT22;62045;49.986;8.672;2022-08-01T07:37:21;27.10;45.80
27258;DHT22;62045;49.986;8.672;2022-08-01T07:42:22;27.10;46.40
27258;DHT22;62045;49.986;8.672;2022-08-01T07:47:25;27.10;47.40
27258;DHT22;62045;49.986;8.672;2022-08-01T07:52:26;27.10;47.20
27258;DHT22;62045;49.986;8.672;2022-08-01T07:57:27;27.10;47.00
27258;DHT22;62045;49.986;8.672;2022-08-01T08:02:29;27.10;46.90
27258;DHT22;62045;49.986;8.672;2022-08-01T08:07:30;27.10;46.60
27258;DHT22;62045;49.986;8.672;2022-08-01T08:12:31;27.20;46.50
27258;DHT22;62045;49.986;8.672;2022-08-01T08:17:34;27.20;46.40
27258;DHT22;62045;49.986;8.672;2022-08-01T08:22:35;27.20;46.50
27258;DHT22;62045;49.986;8.672;2022-08-01T08:27:36;27.20;46.40
27258;DHT22;62045;49.986;8.672;2022-08-01T08:32:39;27.30;46.30
27258;DHT22;62045;49.986;8.672;2022-08-01T08:37:40;27.30;46.20
27258;DHT22;62045;49.986;8.672;2022-08-01T08:42:41;27.30;46.10
27258;DHT22;62045;49.986;8.672;2022-08-01T08:47:45;27.30;46.10
27258;DHT22;62045;49.986;8.672;2022-08-01T08:52:48;27.30;46.10
27258;DHT22;62045;49.986;8.672;2022-08-01T08:57:49;27.30;46.10
27258;DHT22;62045;49.986;8.672;2022-08-01T09:02:52;27.30;46.30
27258;DHT22;62045;49.986;8.672;2022-08-01T09:07:53;27.40;48.90
27258;DHT22;62045;49.986;8.672;2022-08-01T09:13:08;27.40;49.00
27258;DHT22;62045;49.986;8.672;2022-08-01T09:18:26;27.40;49.10
27258;DHT22;62045;49.986;8.672;2022-08-01T09:23:33;27.40;49.10
27258;DHT22;62045;49.986;8.672;2022-08-01T09:28:34;27.40;49.20
27258;DHT22;62045;49.986;8.672;2022-08-01T09:33:50;27.30;49.00
27258;DHT22;62045;49.986;8.672;2022-08-01T09:38:53;27.30;49.00
27258;DHT22;62045;49.986;8.672;2022-08-01T09:43:54;27.30;48.90
27258;DHT22;62045;49.986;8.672;2022-08-01T09:48:58;27.30;48.90
27258;DHT22;62045;49.986;8.672;2022-08-01T09:54:00;27.30;49.00
27258;DHT22;62045;49.986;8.672;2022-08-01T09:59:01;27.30;48.60
27258;DHT22;62045;49.986;8.672;2022-08-01T10:04:11;27.30;49.00
27258;DHT22;62045;49.986;8.672;2022-08-01T10:09:14;27.30;48.50
27258;DHT22;62045;49.986;8.672;2022-08-01T10:14:14;27.30;48.10
27258;DHT22;62045;49.986;8.672;2022-08-01T10:19:18;27.30;47.90
27258;DHT22;62045;49.986;8.672;2022-08-01T10:24:22;27.30;47.80
27258;DHT22;62045;49.986;8.672;2022-08-01T10:29:23;27.30;47.70
27258;DHT22;62045;49.986;8.672;2022-08-01T10:34:27;27.30;47.60
27258;DHT22;62045;49.986;8.672;2022-08-01T10:39:30;27.20;47.80
27258;DHT22;62045;49.986;8.672;2022-08-01T10:44:32;27.20;47.80
27258;DHT22;62045;49.986;8.672;2022-08-01T10:49:41;27.20;47.70
27258;DHT22;62045;49.986;8.672;2022-08-01T10:54:44;27.20;47.90
27258;DHT22;62045;49.986;8.672;2022-08-01T10:59:49;27.10;47.90
27258;DHT22;62045;49.986;8.672;2022-08-01T11:04:55;27.10;47.90
27258;DHT22;62045;49.986;8.672;2022-08-01T11:10:03;27.10;47.80
27258;DHT22;62045;49.986;8.672;2022-08-01T11:15:23;27.10;47.70
27258;DHT22;62045;49.986;8.672;2022-08-01T11:20:27;27.10;47.50
27258;DHT22;62045;49.986;8.672;2022-08-01T11:26:06;27.10;47.40
27258;DHT22;62045;49.986;8.672;2022-08-01T11:31:30;27.20;47.30
27258;DHT22;62045;49.986;8.672;2022-08-01T11:36:33;27.20;47.20
27258;DHT22;62045;49.986;8.672;2022-08-01T11:41:34;27.20;47.00
27258;DHT22;62045;49.986;8.672;2022-08-01T11:46:55;27.20;47.00
27258;DHT22;62045;49.986;8.672;2022-08-01T11:51:59;27.20;47.00
27258;DHT22;62045;49.986;8.672;2022-08-01T11:57:03;27.20;46.90
27258;DHT22;62045;49.986;8.672;2022-08-01T12:02:05;27.20;46.80
27258;DHT22;62045;49.986;8.672;2022-08-01T12:07:17;27.30;46.70
27258;DHT22;62045;49.986;8.672;2022-08-01T12:12:19;27.30;46.50
27258;DHT22;62045;49.986;8.672;2022-08-01T12:17:22;27.30;46.40
27258;DHT22;62045;49.986;8.672;2022-08-01T12:22:29;27.30;46.30
27258;DHT22;62045;49.986;8.672;2022-08-01T12:27:30;27.40;46.20
27258;DHT22;62045;49.986;8.672;2022-08-01T12:32:33;27.40;46.20
27258;DHT22;62045;49.986;8.672;2022-08-01T12:37:37;27.40;46.10
27258;DHT22;62045;49.986;8.672;2022-08-01T12:42:38;27.50;46.10
27258;DHT22;62045;49.986;8.672;2022-08-01T12:47:40;27.50;46.00
27258;DHT22;62045;49.986;8.672;2022-08-01T12:52:43;27.50;46.00
27258;DHT22;62045;49.986;8.672;2022-08-01T12:57:45;27.50;45.90
27258;DHT22;62045;49.986;8.672;2022-08-01T13:02:47;27.50;45.90
27258;DHT22;62045;49.986;8.672;2022-08-01T13:07:50;27.50;45.90
27258;DHT22;62045;49.986;8.672;2022-08-01T13:12:52;27.50;45.90
27258;DHT22;62045;49.986;8.672;2022-08-01T13:17:54;27.40;45.80
27258;DHT22;62045;49.986;8.672;2022-08-01T13:23:10;27.40;45.80
27258;DHT22;62045;49.986;8.672;2022-08-01T13:28:14;27.40;46.40
27258;DHT22;62045;49.986;8.672;2022-08-01T13:33:15;27.40;46.40
27258;DHT22;62045;49.986;8.672;2022-08-01T13:38:17;27.40;45.80
27258;DHT22;62045;49.986;8.672;2022-08-01T13:43:18;27.40;45.70
27258;DHT22;62045;49.986;8.672;2022-08-01T13:48:19;27.40;45.70
27258;DHT22;62045;49.986;8.672;2022-08-01T13:53:21;27.40;45.70
27258;DHT22;62045;49.986;8.672;2022-08-01T13:58:22;27.40;46.00
27258;DHT22;62045;49.986;8.672;2022-08-01T14:03:23;27.40;46.50
27258;DHT22;62045;49.986;8.672;2022-08-01T14:08:25;27.40;46.30
27258;DHT22;62045;49.986;8.672;2022-08-01T14:13:27;27.40;46.10
27258;DHT22;62045;49.986;8.672;2022-08-01T14:18:28;27.50;46.30
27258;DHT22;62045;49.986;8.672;2022-08-01T14:23:30;27.50;46.20
27258;DHT22;62045;49.986;8.672;2022-08-01T14:28:31;27.50;46.00
27258;DHT22;62045;49.986;8.672;2022-08-01T14:33:32;27.60;45.90
27258;DHT22;62045;49.986;8.672;2022-08-01T14:38:34;27.60;45.90
27258;DHT22;62045;49.986;8.672;2022-08-01T14:43:35;27.70;45.70
27258;DHT22;62045;49.986;8.672;2022-08-01T14:48:36;27.70;45.70
27258;DHT22;62045;49.986;8.672;2022-08-01T14:53:38;27.70;45.60
27258;DHT22;62045;49.986;8.672;2022-08-01T14:58:39;27.70;45.50
27258;DHT22;62045;49.986;8.672;2022-08-01T15:03:40;27.70;45.40
27258;DHT22;62045;49.986;8.672;2022-08-01T15:08:43;27.80;45.40
27258;DHT22;62045;49.986;8.672;2022-08-01T15:13:46;27.80;45.30
27258;DHT22;62045;49.986;8.672;2022-08-01T15:18:47;27.80;45.20
27258;DHT22;62045;49.986;8.672;2022-08-01T15:23:50;27.80;45.20
27258;DHT22;62045;49.986;8.672;2022-08-01T15:28:51;27.80;45.20
27258;DHT22;62045;49.986;8.672;2022-08-01T15:33:52;27.70;45.10
27258;DHT22;62045;49.986;8.672;2022-08-01T15:38:55;27.70;45.10
27258;DHT22;62045;49.986;8.672;2022-08-01T15:43:55;27.70;45.10
27258;DHT22;62045;49.986;8.672;2022-08-01T15:48:56;27.70;45.00
27258;DHT22;62045;49.986;8.672;2022-08-01T15:53:59;27.70;45.00
27258;DHT22;62045;49.986;8.672;2022-08-01T15:59:00;27.70;45.00
27258;DHT22;62045;49.986;8.672;2022-08-01T16:04:01;27.70;45.00
27258;DHT22;62045;49.986;8.672;2022-08-01T16:09:03;27.60;44.90
27258;DHT22;62045;49.986;8.672;2022-08-01T16:14:04;27.60;44.90
27258;DHT22;62045;49.986;8.672;2022-08-01T16:19:05;27.60;44.90
27258;DHT22;62045;49.986;8.672;2022-08-01T16:24:08;27.60;44.90
27258;DHT22;62045;49.986;8.672;2022-08-01T16:29:08;27.60;45.00
27258;DHT22;62045;49.986;8.672;2022-08-01T16:34:09;27.70;45.10
27258;DHT22;62045;49.986;8.672;2022-08-01T16:39:12;27.70;45.10
27258;DHT22;62045;49.986;8.672;2022-08-01T16:44:12;27.70;45.30
27258;DHT22;62045;49.986;8.672;2022-08-01T16:49:13;27.70;45.40
27258;DHT22;62045;49.986;8.672;2022-08-01T16:54:16;27.80;45.50
27258;DHT22;62045;49.986;8.672;2022-08-01T16:59:17;27.80;45.50
27258;DHT22;62045;49.986;8.672;2022-08-01T17:04:17;27.80;45.50
27258;DHT22;62045;49.986;8.672;2022-08-01T17:09:20;27.80;45.50
27258;DHT22;62045;49.986;8.672;2022-08-01T17:14:21;27.80;45.40
27258;DHT22;62045;49.986;8.672;2022-08-01T17:19:21;27.90;45.40
27258;DHT22;62045;49.986;8.672;2022-08-01T17:24:24;27.90;45.40
27258;DHT22;62045;49.986;8.672;2022-08-01T17:29:25;27.90;45.40
27258;DHT22;62045;49.986;8.672;2022-08-01T17:34:25;27.90;45.50
27258;DHT22;62045;49.986;8.672;2022-08-01T17:39:28;27.90;45.50
27258;DHT22;62045;49.986;8.672;2022-08-01T17:44:29;27.90;45.90
27258;DHT22;62045;49.986;8.672;2022-08-01T17:49:29;27.90;45.80
27258;DHT22;62045;49.986;8.672;2022-08-01T17:54:32;27.90;45.80
27258;DHT22;62045;49.986;8.672;2022-08-01T17:59:33;27.90;45.70
27258;DHT22;62045;49.986;8.672;2022-08-01T18:04:33;27.90;45.70
27258;DHT22;62045;49.986;8.672;2022-08-01T18:09:36;27.80;45.60
27258;DHT22;62045;49.986;8.672;2022-08-01T18:14:37;27.80;45.60
27258;DHT22;62045;49.986;8.672;2022-08-01T18:19:38;27.80;45.60
27258;DHT22;62045;49.986;8.672;2022-08-01T18:24:40;27.80;45.60
27258;DHT22;62045;49.986;8.672;2022-08-01T18:29:41;27.80;45.50
27258;DHT22;62045;49.986;8.672;2022-08-01T18:34:42;27.80;45.50
27258;DHT22;62045;49.986;8.672;2022-08-01T18:39:44;27.80;45.50
27258;DHT22;62045;49.986;8.672;2022-08-01T18:44:45;27.80;45.50
27258;DHT22;62045;49.986;8.672;2022-08-01T18:49:46;27.80;45.50
27258;DHT22;62045;49.986;8.672;2022-08-01T18:54:48;27.80;45.50
27258;DHT22;62045;49.986;8.672;2022-08-01T18:59:49;27.90;45.50
27258;DHT22;62045;49.986;8.672;2022-08-01T19:04:50;27.90;45.40
27258;DHT22;62045;49.986;8.672;2022-08-01T19:09:53;27.90;45.30
27258;DHT22;62045;49.986;8.672;2022-08-01T19:14:53;27.90;45.40
27258;DHT22;62045;49.986;8.672;2022-08-01T19:19:54;27.90;45.30
27258;DHT22;62045;49.986;8.672;2022-08-01T19:24:57;27.90;45.20
27258;DHT22;62045;49.986;8.672;2022-08-01T19:30:01;28.00;45.20
27258;DHT22;62045;49.986;8.672;2022-08-01T19:35:04;27.90;45.10
27258;DHT22;62045;49.986;8.672;2022-08-01T19:40:07;28.00;45.10
27258;DHT22;62045;49.986;8.672;2022-08-01T19:45:09;28.00;45.10
27258;DHT22;62045;49.986;8.672;2022-08-01T19:50:10;28.00;45.10
27258;DHT22;62045;49.986;8.672;2022-08-01T19:55:12;28.00;45.10
27258;DHT22;62045;49.986;8.672;2022-08-01T20:00:13;27.90;45.00
27258;DHT22;62045;49.986;8.672;2022-08-01T20:05:14;27.90;45.00
27258;DHT22;62045;49.986;8.672;2022-08-01T20:10:19;27.90;44.90
27258;DHT22;62045;49.986;8.672;2022-08-01T20:15:20;27.90;44.90
27258;DHT22;62045;49.986;8.672;2022-08-01T20:20:22;27.80;44.90
27258;DHT22;62045;49.986;8.672;2022-08-01T20:25:26;27.90;44.90
27258;DHT22;62045;49.986;8.672;2022-08-01T20:30:28;27.80;45.00
27258;DHT22;62045;49.986;8.672;2022-08-01T20:35:29;27.80;45.10
27258;DHT22;62045;49.986;8.672;2022-08-01T20:40:33;27.80;45.10
27258;DHT22;62045;49.986;8.672;2022-08-01T20:45:35;27.80;45.10
27258;DHT22;62045;49.986;8.672;2022-08-01T20:50:36;27.80;45.10
27258;DHT22;62045;49.986;8.672;2022-08-01T20:55:48;27.80;45.10
27258;DHT22;62045;49.986;8.672;2022-08-01T21:00:51;27.80;45.10
27258;DHT22;62045;49.986;8.672;2022-08-01T21:05:55;27.80;45.10
27258;DHT22;62045;49.986;8.672;2022-08-01T21:11:00;27.80;45.10
27258;DHT22;62045;49.986;8.672;2022-08-01T21:16:03;27.80;45.00
27258;DHT22;62045;49.986;8.672;2022-08-01T21:21:11;27.80;45.00
27258;DHT22;62045;49.986;8.672;2022-08-01T21:26:18;27.80;44.90
27258;DHT22;62045;49.986;8.672;2022-08-01T21:31:20;27.90;45.00
27258;DHT22;62045;49.986;8.672;2022-08-01T21:36:21;27.90;44.90
27258;DHT22;62045;49.986;8.672;2022-08-01T21:41:25;27.90;45.00
27258;DHT22;62045;49.986;8.672;2022-08-01T21:46:28;27.90;44.90
27258;DHT22;62045;49.986;8.672;2022-08-01T21:51:38;27.90;44.90
27258;DHT22;62045;49.986;8.672;2022-08-01T21:56:51;27.90;44.90
27258;DHT22;62045;49.986;8.672;2022-08-01T22:02:02;27.90;44.80
27258;DHT22;62045;49.986;8.672;2022-08-01T22:07:04;27.90;44.80
27258;DHT22;62045;49.986;8.672;2022-08-01T22:12:09;27.80;44.70
27258;DHT22;62045;49.986;8.672;2022-08-01T22:17:19;27.80;44.70
27258;DHT22;62045;49.986;8.672;2022-08-01T22:22:21;27.80;44.70
27258;DHT22;62045;49.986;8.672;2022-08-01T22:27:24;27.80;44.70
27258;DHT22;62045;49.986;8.672;2022-08-01T22:32:26;27.80;44.70
27258;DHT22;62045;49.986;8.672;2022-08-01T22:37:28;27.80;44.70
27258;DHT22;62045;49.986;8.672;2022-08-01T22:42:36;27.70;44.60
27258;DHT22;62045;49.986;8.672;2022-08-01T22:47:57;27.70;44.60
27258;DHT22;62045;49.986;8.672;2022-08-01T22:53:07;27.70;44.60
27258;DHT22;62045;49.986;8.672;2022-08-01T22:58:14;27.70;44.70
27258;DHT22;62045;49.986;8.672;2022-08-01T23:03:19;27.70;44.70
27258;DHT22;62045;49.986;8.672;2022-08-01T23:08:22;27.70;44.70
27258;DHT22;62045;49.986;8.672;2022-08-01T23:13:25;27.60;44.70
27258;DHT22;62045;49.986;8.672;2022-08-01T23:18:27;27.60;44.70
27258;DHT22;62045;49.986;8.672;2022-08-01T23:23:30;27.60;44.70
27258;DHT22;62045;49.986;8.672;2022-08-01T23:28:33;27.70;44.80
27258;DHT22;62045;49.986;8.672;2022-08-01T23:33:34;27.70;44.80
27258;DHT22;62045;49.986;8.672;2022-08-01T23:38:35;27.70;44.70
27258;DHT22;62045;49.986;8.672;2022-08-01T23:43:38;27.70;44.70
27258;DHT22;62045;49.986;8.672;2022-08-01T23:48:39;27.70;44.70
27258;DHT22;62045;49.986;8.672;2022-08-01T23:53:39;27.70;44.70
27258;DHT22;62045;49.986;8.672;2022-08-01T23:58:42;27.70;44.60
